sensor_id;sensor_type;location;lat;lon;timestamp;P1;durP1;ratioP1;P2;durP2;ratioP2
76379;SDS011;65201;21.060;105.826;2023-02-03T00:01:00;31.65;;;22.35;;
76379;SDS011;65201;21.060;105.826;2023-02-03T00:03:26;30.43;;;21.93;;
76379;SDS011;65201;21.060;105.826;2023-02-03T00:05:53;33.00;;;23.23;;
76379;SDS011;65201;21.060;105.826;2023-02-03T00:08:19;30.90;;;22.00;;
76379;SDS011;65201;21.060;105.826;2023-02-03T00:10:46;34.38;;;22.88;;
76379;SDS011;65201;21.060;105.826;2023-02-03T00:13:12;30.25;;;22.33;;
76379;SDS011;65201;21.060;105.826;2023-02-03T00:15:39;36.43;;;22.57;;
76379;SDS011;65201;21.060;105.826;2023-02-03T00:18:05;30.92;;;20.90;;
76379;SDS011;65201;21.060;105.826;2023-02-03T00:20:31;30.92;;;21.42;;
76379;SDS011;65201;21.060;105.826;2023-02-03T00:23:04;32.92;;;21.92;;
76379;SDS011;65201;21.060;105.826;2023-02-03T00:25:31;34.35;;;21.60;;
76379;SDS011;65201;21.060;105.826;2023-02-03T00:27:57;34.57;;;23.53;;
76379;SDS011;65201;21.060;105.826;2023-02-03T00:30:23;39.38;;;22.98;;
76379;SDS011;65201;21.060;105.826;2023-02-03T00:32:49;30.35;;;20.90;;
76379;SDS011;65201;21.060;105.826;2023-02-03T00:35:15;33.80;;;22.20;;
76379;SDS011;65201;21.060;105.826;2023-02-03T00:37:42;33.90;;;22.60;;
76379;SDS011;65201;21.060;105.826;2023-02-03T00:40:08;35.47;;;22.10;;
76379;SDS011;65201;21.060;105.826;2023-02-03T00:42:34;36.05;;;22.00;;
76379;SDS011;65201;21.060;105.826;2023-02-03T00:45:01;33.20;;;21.77;;
76379;SDS011;65201;21.060;105.826;2023-02-03T00:47:27;34.03;;;21.65;;
76379;SDS011;65201;21.060;105.826;2023-02-03T00:49:53;31.05;;;21.80;;
76379;SDS011;65201;21.060;105.826;2023-02-03T00:52:19;34.67;;;21.33;;
76379;SDS011;65201;21.060;105.826;2023-02-03T00:54:45;39.83;;;22.38;;
76379;SDS011;65201;21.060;105.826;2023-02-03T00:57:11;32.10;;;21.65;;
76379;SDS011;65201;21.060;105.826;2023-02-03T00:59:37;31.25;;;21.52;;
76379;SDS011;65201;21.060;105.826;2023-02-03T01:02:03;32.50;;;21.40;;
76379;SDS011;65201;21.060;105.826;2023-02-03T01:04:29;31.90;;;21.57;;
76379;SDS011;65201;21.060;105.826;2023-02-03T01:06:55;33.92;;;21.67;;
76379;SDS011;65201;21.060;105.826;2023-02-03T01:09:24;35.33;;;22.00;;
76379;SDS011;65201;21.060;105.826;2023-02-03T01:11:50;30.10;;;21.20;;
76379;SDS011;65201;21.060;105.826;2023-02-03T01:14:17;35.38;;;21.85;;
76379;SDS011;65201;21.060;105.826;2023-02-03T01:16:43;32.13;;;21.07;;
76379;SDS011;65201;21.060;105.826;2023-02-03T01:22:13;31.45;;;20.45;;
76379;SDS011;65201;21.060;105.826;2023-02-03T01:24:39;31.35;;;22.00;;
76379;SDS011;65201;21.060;105.826;2023-02-03T01:27:05;30.35;;;21.23;;
76379;SDS011;65201;21.060;105.826;2023-02-03T01:29:31;32.40;;;21.20;;
76379;SDS011;65201;21.060;105.826;2023-02-03T01:31:57;35.25;;;22.67;;
76379;SDS011;65201;21.060;105.826;2023-02-03T01:34:24;31.58;;;21.65;;
76379;SDS011;65201;21.060;105.826;2023-02-03T01:36:50;33.80;;;21.75;;
76379;SDS011;65201;21.060;105.826;2023-02-03T01:39:16;33.13;;;21.30;;
76379;SDS011;65201;21.060;105.826;2023-02-03T01:41:42;30.03;;;20.93;;
76379;SDS011;65201;21.060;105.826;2023-02-03T01:46:53;32.72;;;21.05;;
76379;SDS011;65201;21.060;105.826;2023-02-03T01:49:21;29.42;;;20.35;;
76379;SDS011;65201;21.060;105.826;2023-02-03T01:51:48;49.40;;;20.45;;
76379;SDS011;65201;21.060;105.826;2023-02-03T01:54:16;31.50;;;20.27;;
76379;SDS011;65201;21.060;105.826;2023-02-03T01:56:44;31.67;;;21.30;;
76379;SDS011;65201;21.060;105.826;2023-02-03T01:59:11;32.25;;;20.70;;
76379;SDS011;65201;21.060;105.826;2023-02-03T02:01:40;30.33;;;20.73;;
76379;SDS011;65201;21.060;105.826;2023-02-03T02:04:06;31.77;;;20.35;;
76379;SDS011;65201;21.060;105.826;2023-02-03T02:06:33;40.27;;;20.97;;
76379;SDS011;65201;21.060;105.826;2023-02-03T02:08:59;30.42;;;21.08;;
76379;SDS011;65201;21.060;105.826;2023-02-03T02:11:26;35.00;;;20.90;;
76379;SDS011;65201;21.060;105.826;2023-02-03T02:13:53;33.92;;;20.65;;
76379;SDS011;65201;21.060;105.826;2023-02-03T02:16:34;31.67;;;20.92;;
76379;SDS011;65201;21.060;105.826;2023-02-03T02:19:23;27.43;;;20.10;;
76379;SDS011;65201;21.060;105.826;2023-02-03T02:21:53;32.83;;;20.48;;
76379;SDS011;65201;21.060;105.826;2023-02-03T02:37:43;30.90;;;20.38;;
76379;SDS011;65201;21.060;105.826;2023-02-03T02:40:22;31.30;;;19.10;;
76379;SDS011;65201;21.060;105.826;2023-02-03T02:45:20;29.20;;;19.17;;
76379;SDS011;65201;21.060;105.826;2023-02-03T02:47:52;27.15;;;19.08;;
76379;SDS011;65201;21.060;105.826;2023-02-03T02:50:23;26.98;;;19.70;;
76379;SDS011;65201;21.060;105.826;2023-02-03T02:52:51;29.52;;;18.90;;
76379;SDS011;65201;21.060;105.826;2023-02-03T02:55:25;31.17;;;19.30;;
76379;SDS011;65201;21.060;105.826;2023-02-03T02:58:22;27.10;;;18.50;;
76379;SDS011;65201;21.060;105.826;2023-02-03T03:00:48;28.27;;;18.75;;
76379;SDS011;65201;21.060;105.826;2023-02-03T03:05:45;24.73;;;18.52;;
76379;SDS011;65201;21.060;105.826;2023-02-03T03:08:13;28.88;;;19.02;;
76379;SDS011;65201;21.060;105.826;2023-02-03T03:10:40;26.27;;;18.73;;
76379;SDS011;65201;21.060;105.826;2023-02-03T03:13:07;30.00;;;18.30;;
76379;SDS011;65201;21.060;105.826;2023-02-03T03:15:34;32.15;;;18.58;;
76379;SDS011;65201;21.060;105.826;2023-02-03T03:18:04;26.35;;;18.13;;
76379;SDS011;65201;21.060;105.826;2023-02-03T03:20:33;27.38;;;18.10;;
76379;SDS011;65201;21.060;105.826;2023-02-03T03:23:02;30.57;;;17.93;;
76379;SDS011;65201;21.060;105.826;2023-02-03T03:25:33;29.55;;;18.00;;
76379;SDS011;65201;21.060;105.826;2023-02-03T03:28:00;26.73;;;18.38;;
76379;SDS011;65201;21.060;105.826;2023-02-03T03:30:28;28.95;;;18.70;;
76379;SDS011;65201;21.060;105.826;2023-02-03T03:33:01;28.67;;;18.10;;
76379;SDS011;65201;21.060;105.826;2023-02-03T03:35:30;23.97;;;16.93;;
76379;SDS011;65201;21.060;105.826;2023-02-03T03:37:59;28.40;;;18.75;;
76379;SDS011;65201;21.060;105.826;2023-02-03T03:40:31;27.92;;;18.35;;
76379;SDS011;65201;21.060;105.826;2023-02-03T03:43:06;28.13;;;17.83;;
76379;SDS011;65201;21.060;105.826;2023-02-03T03:48:25;23.67;;;16.70;;
76379;SDS011;65201;21.060;105.826;2023-02-03T03:50:55;27.65;;;17.45;;
76379;SDS011;65201;21.060;105.826;2023-02-03T03:53:22;24.45;;;17.55;;
76379;SDS011;65201;21.060;105.826;2023-02-03T03:55:50;22.92;;;16.88;;
76379;SDS011;65201;21.060;105.826;2023-02-03T03:58:35;32.80;;;17.88;;
76379;SDS011;65201;21.060;105.826;2023-02-03T04:01:02;31.20;;;17.33;;
76379;SDS011;65201;21.060;105.826;2023-02-03T04:03:34;23.02;;;16.75;;
76379;SDS011;65201;21.060;105.826;2023-02-03T04:06:03;26.83;;;16.13;;
76379;SDS011;65201;21.060;105.826;2023-02-03T04:08:29;23.48;;;16.50;;
76379;SDS011;65201;21.060;105.826;2023-02-03T04:10:55;29.23;;;17.35;;
76379;SDS011;65201;21.060;105.826;2023-02-03T04:13:21;23.77;;;15.93;;
76379;SDS011;65201;21.060;105.826;2023-02-03T04:15:47;22.63;;;17.05;;
76379;SDS011;65201;21.060;105.826;2023-02-03T04:18:14;23.08;;;16.27;;
76379;SDS011;65201;21.060;105.826;2023-02-03T04:20:40;26.52;;;16.83;;
76379;SDS011;65201;21.060;105.826;2023-02-03T04:23:07;25.67;;;16.90;;
76379;SDS011;65201;21.060;105.826;2023-02-03T04:25:33;27.90;;;16.47;;
76379;SDS011;65201;21.060;105.826;2023-02-03T04:28:00;29.23;;;16.15;;
76379;SDS011;65201;21.060;105.826;2023-02-03T04:30:26;24.88;;;17.30;;
76379;SDS011;65201;21.060;105.826;2023-02-03T04:32:52;28.10;;;16.17;;
76379;SDS011;65201;21.060;105.826;2023-02-03T04:35:18;22.55;;;16.20;;
76379;SDS011;65201;21.060;105.826;2023-02-03T04:37:45;23.40;;;16.37;;
76379;SDS011;65201;21.060;105.826;2023-02-03T04:40:11;25.20;;;15.82;;
76379;SDS011;65201;21.060;105.826;2023-02-03T04:42:37;29.67;;;16.48;;
76379;SDS011;65201;21.060;105.826;2023-02-03T04:45:04;22.75;;;15.57;;
76379;SDS011;65201;21.060;105.826;2023-02-03T04:47:31;24.92;;;14.77;;
76379;SDS011;65201;21.060;105.826;2023-02-03T04:49:57;22.73;;;15.17;;
76379;SDS011;65201;21.060;105.826;2023-02-03T04:52:23;22.58;;;16.17;;
76379;SDS011;65201;21.060;105.826;2023-02-03T04:54:49;21.88;;;15.45;;
76379;SDS011;65201;21.060;105.826;2023-02-03T04:57:15;21.42;;;15.07;;
76379;SDS011;65201;21.060;105.826;2023-02-03T04:59:41;20.98;;;14.95;;
76379;SDS011;65201;21.060;105.826;2023-02-03T05:02:07;24.07;;;15.07;;
76379;SDS011;65201;21.060;105.826;2023-02-03T05:04:33;25.05;;;15.23;;
76379;SDS011;65201;21.060;105.826;2023-02-03T05:07:00;25.60;;;15.43;;
76379;SDS011;65201;21.060;105.826;2023-02-03T05:09:26;21.55;;;14.75;;
76379;SDS011;65201;21.060;105.826;2023-02-03T05:11:52;20.85;;;15.10;;
76379;SDS011;65201;21.060;105.826;2023-02-03T05:14:18;21.57;;;15.30;;
76379;SDS011;65201;21.060;105.826;2023-02-03T05:16:45;19.67;;;14.45;;
76379;SDS011;65201;21.060;105.826;2023-02-03T05:19:11;19.85;;;14.40;;
76379;SDS011;65201;21.060;105.826;2023-02-03T05:21:37;21.17;;;14.70;;
76379;SDS011;65201;21.060;105.826;2023-02-03T05:24:03;21.20;;;14.32;;
76379;SDS011;65201;21.060;105.826;2023-02-03T05:26:32;19.53;;;14.80;;
76379;SDS011;65201;21.060;105.826;2023-02-03T05:28:59;20.60;;;14.30;;
76379;SDS011;65201;21.060;105.826;2023-02-03T05:31:25;18.23;;;14.10;;
76379;SDS011;65201;21.060;105.826;2023-02-03T05:33:51;19.25;;;14.15;;
76379;SDS011;65201;21.060;105.826;2023-02-03T05:36:17;17.48;;;14.30;;
76379;SDS011;65201;21.060;105.826;2023-02-03T05:38:43;19.40;;;12.93;;
76379;SDS011;65201;21.060;105.826;2023-02-03T05:41:10;19.58;;;13.52;;
76379;SDS011;65201;21.060;105.826;2023-02-03T05:43:54;19.38;;;13.68;;
76379;SDS011;65201;21.060;105.826;2023-02-03T05:46:21;19.50;;;13.23;;
76379;SDS011;65201;21.060;105.826;2023-02-03T05:48:47;19.40;;;13.70;;
76379;SDS011;65201;21.060;105.826;2023-02-03T05:51:13;22.50;;;14.07;;
76379;SDS011;65201;21.060;105.826;2023-02-03T05:53:39;18.98;;;13.48;;
76379;SDS011;65201;21.060;105.826;2023-02-03T05:56:05;18.98;;;13.88;;
76379;SDS011;65201;21.060;105.826;2023-02-03T05:58:31;18.63;;;13.63;;
76379;SDS011;65201;21.060;105.826;2023-02-03T06:00:57;19.60;;;13.43;;
76379;SDS011;65201;21.060;105.826;2023-02-03T06:03:23;17.90;;;13.07;;
76379;SDS011;65201;21.060;105.826;2023-02-03T06:05:49;18.17;;;14.02;;
76379;SDS011;65201;21.060;105.826;2023-02-03T06:08:16;17.85;;;12.35;;
76379;SDS011;65201;21.060;105.826;2023-02-03T06:10:42;19.45;;;13.02;;
76379;SDS011;65201;21.060;105.826;2023-02-03T06:13:12;18.13;;;12.73;;
76379;SDS011;65201;21.060;105.826;2023-02-03T06:15:39;20.07;;;13.73;;
76379;SDS011;65201;21.060;105.826;2023-02-03T06:18:05;15.90;;;12.52;;
76379;SDS011;65201;21.060;105.826;2023-02-03T06:20:31;17.60;;;12.73;;
76379;SDS011;65201;21.060;105.826;2023-02-03T06:22:57;18.23;;;13.15;;
76379;SDS011;65201;21.060;105.826;2023-02-03T06:25:23;17.98;;;13.25;;
76379;SDS011;65201;21.060;105.826;2023-02-03T06:27:49;58.10;;;21.17;;
76379;SDS011;65201;21.060;105.826;2023-02-03T06:30:16;26.33;;;15.32;;
76379;SDS011;65201;21.060;105.826;2023-02-03T06:32:42;29.83;;;17.98;;
76379;SDS011;65201;21.060;105.826;2023-02-03T06:35:08;38.70;;;18.35;;
76379;SDS011;65201;21.060;105.826;2023-02-03T06:37:34;34.60;;;17.98;;
76379;SDS011;65201;21.060;105.826;2023-02-03T06:40:01;35.97;;;19.07;;
76379;SDS011;65201;21.060;105.826;2023-02-03T06:42:27;34.67;;;19.58;;
76379;SDS011;65201;21.060;105.826;2023-02-03T06:44:53;48.65;;;21.05;;
76379;SDS011;65201;21.060;105.826;2023-02-03T06:47:19;43.20;;;19.98;;
76379;SDS011;65201;21.060;105.826;2023-02-03T06:49:45;36.08;;;19.52;;
76379;SDS011;65201;21.060;105.826;2023-02-03T06:52:11;38.23;;;20.23;;
76379;SDS011;65201;21.060;105.826;2023-02-03T06:54:38;43.78;;;20.38;;
76379;SDS011;65201;21.060;105.826;2023-02-03T06:57:04;36.05;;;20.00;;
76379;SDS011;65201;21.060;105.826;2023-02-03T06:59:30;33.13;;;19.45;;
76379;SDS011;65201;21.060;105.826;2023-02-03T07:01:56;40.78;;;20.27;;
76379;SDS011;65201;21.060;105.826;2023-02-03T07:04:23;35.00;;;19.73;;
76379;SDS011;65201;21.060;105.826;2023-02-03T07:06:49;38.58;;;19.50;;
76379;SDS011;65201;21.060;105.826;2023-02-03T07:09:15;32.85;;;18.83;;
76379;SDS011;65201;21.060;105.826;2023-02-03T07:11:41;37.30;;;19.40;;
76379;SDS011;65201;21.060;105.826;2023-02-03T07:14:07;37.88;;;18.98;;
76379;SDS011;65201;21.060;105.826;2023-02-03T07:16:33;30.77;;;18.33;;
76379;SDS011;65201;21.060;105.826;2023-02-03T07:19:02;33.67;;;19.70;;
76379;SDS011;65201;21.060;105.826;2023-02-03T07:21:28;38.85;;;19.08;;
76379;SDS011;65201;21.060;105.826;2023-02-03T07:23:54;36.63;;;19.30;;
76379;SDS011;65201;21.060;105.826;2023-02-03T07:26:21;34.08;;;19.17;;
76379;SDS011;65201;21.060;105.826;2023-02-03T07:28:50;33.17;;;18.33;;
76379;SDS011;65201;21.060;105.826;2023-02-03T07:31:17;35.22;;;18.90;;
76379;SDS011;65201;21.060;105.826;2023-02-03T07:33:43;34.90;;;19.20;;
76379;SDS011;65201;21.060;105.826;2023-02-03T07:36:09;32.80;;;18.50;;
76379;SDS011;65201;21.060;105.826;2023-02-03T07:38:36;32.03;;;18.05;;
76379;SDS011;65201;21.060;105.826;2023-02-03T07:41:05;32.20;;;18.03;;
76379;SDS011;65201;21.060;105.826;2023-02-03T07:43:31;33.70;;;18.52;;
76379;SDS011;65201;21.060;105.826;2023-02-03T07:45:57;30.35;;;18.08;;
76379;SDS011;65201;21.060;105.826;2023-02-03T07:48:23;36.08;;;17.58;;
76379;SDS011;65201;21.060;105.826;2023-02-03T07:50:49;30.73;;;18.02;;
76379;SDS011;65201;21.060;105.826;2023-02-03T07:53:17;30.57;;;17.67;;
76379;SDS011;65201;21.060;105.826;2023-02-03T07:55:43;27.10;;;17.33;;
76379;SDS011;65201;21.060;105.826;2023-02-03T07:58:09;30.05;;;17.65;;
76379;SDS011;65201;21.060;105.826;2023-02-03T08:00:36;31.35;;;17.48;;
76379;SDS011;65201;21.060;105.826;2023-02-03T08:03:02;26.95;;;17.65;;
76379;SDS011;65201;21.060;105.826;2023-02-03T08:05:28;28.27;;;17.57;;
76379;SDS011;65201;21.060;105.826;2023-02-03T08:07:55;26.40;;;16.98;;
76379;SDS011;65201;21.060;105.826;2023-02-03T08:10:21;32.35;;;17.52;;
76379;SDS011;65201;21.060;105.826;2023-02-03T08:12:47;28.88;;;16.48;;
76379;SDS011;65201;21.060;105.826;2023-02-03T08:15:13;31.58;;;17.45;;
76379;SDS011;65201;21.060;105.826;2023-02-03T08:20:43;27.38;;;16.50;;
76379;SDS011;65201;21.060;105.826;2023-02-03T08:23:09;23.88;;;16.17;;
76379;SDS011;65201;21.060;105.826;2023-02-03T08:25:35;27.83;;;16.40;;
76379;SDS011;65201;21.060;105.826;2023-02-03T08:28:01;25.75;;;16.63;;
76379;SDS011;65201;21.060;105.826;2023-02-03T08:30:27;25.90;;;16.50;;
76379;SDS011;65201;21.060;105.826;2023-02-03T08:32:53;27.38;;;15.65;;
76379;SDS011;65201;21.060;105.826;2023-02-03T08:35:19;24.92;;;16.40;;
76379;SDS011;65201;21.060;105.826;2023-02-03T08:37:46;26.67;;;16.52;;
76379;SDS011;65201;21.060;105.826;2023-02-03T08:40:12;24.58;;;16.05;;
76379;SDS011;65201;21.060;105.826;2023-02-03T08:42:38;24.63;;;15.93;;
76379;SDS011;65201;21.060;105.826;2023-02-03T08:45:04;27.05;;;16.48;;
76379;SDS011;65201;21.060;105.826;2023-02-03T08:47:30;27.70;;;16.58;;
76379;SDS011;65201;21.060;105.826;2023-02-03T08:49:56;29.42;;;16.02;;
76379;SDS011;65201;21.060;105.826;2023-02-03T08:52:22;27.60;;;16.08;;
76379;SDS011;65201;21.060;105.826;2023-02-03T08:54:49;25.27;;;15.50;;
76379;SDS011;65201;21.060;105.826;2023-02-03T08:57:15;23.60;;;15.30;;
76379;SDS011;65201;21.060;105.826;2023-02-03T08:59:41;24.00;;;15.40;;
76379;SDS011;65201;21.060;105.826;2023-02-03T09:02:10;26.33;;;16.10;;
76379;SDS011;65201;21.060;105.826;2023-02-03T09:04:36;21.60;;;15.05;;
76379;SDS011;65201;21.060;105.826;2023-02-03T09:07:02;24.60;;;15.47;;
76379;SDS011;65201;21.060;105.826;2023-02-03T09:09:29;25.10;;;15.60;;
76379;SDS011;65201;21.060;105.826;2023-02-03T09:11:55;24.77;;;15.20;;
76379;SDS011;65201;21.060;105.826;2023-02-03T09:14:30;21.30;;;15.55;;
76379;SDS011;65201;21.060;105.826;2023-02-03T09:16:57;23.88;;;15.43;;
76379;SDS011;65201;21.060;105.826;2023-02-03T09:19:23;24.57;;;15.43;;
76379;SDS011;65201;21.060;105.826;2023-02-03T09:21:50;24.45;;;14.95;;
76379;SDS011;65201;21.060;105.826;2023-02-03T09:24:16;22.52;;;14.70;;
76379;SDS011;65201;21.060;105.826;2023-02-03T09:26:43;21.40;;;14.27;;
76379;SDS011;65201;21.060;105.826;2023-02-03T09:29:09;25.08;;;15.27;;
76379;SDS011;65201;21.060;105.826;2023-02-03T09:31:35;22.37;;;14.83;;
76379;SDS011;65201;21.060;105.826;2023-02-03T09:34:01;22.48;;;15.07;;
76379;SDS011;65201;21.060;105.826;2023-02-03T09:36:27;23.13;;;15.23;;
76379;SDS011;65201;21.060;105.826;2023-02-03T09:38:54;22.75;;;14.80;;
76379;SDS011;65201;21.060;105.826;2023-02-03T09:44:28;21.30;;;14.43;;
76379;SDS011;65201;21.060;105.826;2023-02-03T09:47:01;22.98;;;14.80;;
76379;SDS011;65201;21.060;105.826;2023-02-03T09:49:33;19.33;;;14.18;;
76379;SDS011;65201;21.060;105.826;2023-02-03T09:52:02;20.23;;;14.13;;
76379;SDS011;65201;21.060;105.826;2023-02-03T09:56:59;20.67;;;14.27;;
76379;SDS011;65201;21.060;105.826;2023-02-03T09:59:26;22.50;;;14.25;;
76379;SDS011;65201;21.060;105.826;2023-02-03T10:01:56;18.33;;;14.07;;
76379;SDS011;65201;21.060;105.826;2023-02-03T10:06:54;20.80;;;13.45;;
76379;SDS011;65201;21.060;105.826;2023-02-03T10:09:27;22.20;;;14.37;;
76379;SDS011;65201;21.060;105.826;2023-02-03T10:19:23;23.85;;;14.15;;
76379;SDS011;65201;21.060;105.826;2023-02-03T10:21:51;23.03;;;13.77;;
76379;SDS011;65201;21.060;105.826;2023-02-03T10:24:24;20.15;;;13.60;;
76379;SDS011;65201;21.060;105.826;2023-02-03T10:26:51;21.83;;;14.13;;
76379;SDS011;65201;21.060;105.826;2023-02-03T10:29:19;19.85;;;13.75;;
76379;SDS011;65201;21.060;105.826;2023-02-03T10:31:45;23.55;;;13.70;;
76379;SDS011;65201;21.060;105.826;2023-02-03T10:34:13;22.03;;;14.43;;
76379;SDS011;65201;21.060;105.826;2023-02-03T10:39:13;22.13;;;14.00;;
76379;SDS011;65201;21.060;105.826;2023-02-03T10:41:42;20.23;;;13.77;;
76379;SDS011;65201;21.060;105.826;2023-02-03T10:44:08;23.42;;;13.05;;
76379;SDS011;65201;21.060;105.826;2023-02-03T10:46:37;20.53;;;13.10;;
76379;SDS011;65201;21.060;105.826;2023-02-03T10:49:04;19.55;;;13.20;;
76379;SDS011;65201;21.060;105.826;2023-02-03T10:51:35;20.33;;;13.25;;
76379;SDS011;65201;21.060;105.826;2023-02-03T10:54:01;20.65;;;13.50;;
76379;SDS011;65201;21.060;105.826;2023-02-03T10:56:31;22.38;;;13.60;;
76379;SDS011;65201;21.060;105.826;2023-02-03T10:59:00;15.57;;;12.83;;
76379;SDS011;65201;21.060;105.826;2023-02-03T11:01:27;16.73;;;12.73;;
76379;SDS011;65201;21.060;105.826;2023-02-03T11:03:57;17.63;;;13.30;;
76379;SDS011;65201;21.060;105.826;2023-02-03T11:06:25;17.98;;;13.20;;
76379;SDS011;65201;21.060;105.826;2023-02-03T11:08:51;18.65;;;13.35;;
76379;SDS011;65201;21.060;105.826;2023-02-03T11:11:22;17.47;;;13.00;;
76379;SDS011;65201;21.060;105.826;2023-02-03T11:13:54;19.77;;;12.88;;
76379;SDS011;65201;21.060;105.826;2023-02-03T11:16:21;20.25;;;13.35;;
76379;SDS011;65201;21.060;105.826;2023-02-03T11:19:03;17.67;;;12.93;;
76379;SDS011;65201;21.060;105.826;2023-02-03T11:24:05;18.80;;;13.17;;
76379;SDS011;65201;21.060;105.826;2023-02-03T11:26:35;17.63;;;12.77;;
76379;SDS011;65201;21.060;105.826;2023-02-03T11:29:02;18.35;;;13.48;;
76379;SDS011;65201;21.060;105.826;2023-02-03T11:31:31;18.83;;;12.98;;
76379;SDS011;65201;21.060;105.826;2023-02-03T11:34:02;20.38;;;13.48;;
76379;SDS011;65201;21.060;105.826;2023-02-03T11:36:29;15.37;;;12.10;;
76379;SDS011;65201;21.060;105.826;2023-02-03T11:41:38;17.20;;;13.13;;
76379;SDS011;65201;21.060;105.826;2023-02-03T11:44:11;19.23;;;13.20;;
76379;SDS011;65201;21.060;105.826;2023-02-03T11:46:40;17.60;;;12.77;;
76379;SDS011;65201;21.060;105.826;2023-02-03T11:51:38;17.73;;;12.80;;
76379;SDS011;65201;21.060;105.826;2023-02-03T12:04:52;15.77;;;13.07;;
76379;SDS011;65201;21.060;105.826;2023-02-03T12:07:40;18.83;;;12.90;;
76379;SDS011;65201;21.060;105.826;2023-02-03T12:13:00;16.75;;;12.00;;
76379;SDS011;65201;21.060;105.826;2023-02-03T12:24:21;15.90;;;12.52;;
76379;SDS011;65201;21.060;105.826;2023-02-03T12:28:58;14.50;;;11.63;;
76379;SDS011;65201;21.060;105.826;2023-02-03T12:37:09;15.77;;;12.23;;
76379;SDS011;65201;21.060;105.826;2023-02-03T12:39:43;18.88;;;13.02;;
76379;SDS011;65201;21.060;105.826;2023-02-03T12:42:11;17.37;;;12.30;;
76379;SDS011;65201;21.060;105.826;2023-02-03T12:47:13;15.38;;;11.73;;
76379;SDS011;65201;21.060;105.826;2023-02-03T12:57:48;15.63;;;11.95;;
76379;SDS011;65201;21.060;105.826;2023-02-03T13:03:10;13.73;;;11.15;;
76379;SDS011;65201;21.060;105.826;2023-02-03T13:05:43;14.52;;;11.88;;
76379;SDS011;65201;21.060;105.826;2023-02-03T13:13:47;15.43;;;11.70;;
76379;SDS011;65201;21.060;105.826;2023-02-03T13:16:22;14.38;;;11.38;;
76379;SDS011;65201;21.060;105.826;2023-02-03T13:18:54;18.70;;;13.20;;
76379;SDS011;65201;21.060;105.826;2023-02-03T13:21:28;16.17;;;12.50;;
76379;SDS011;65201;21.060;105.826;2023-02-03T13:23:54;19.90;;;12.13;;
76379;SDS011;65201;21.060;105.826;2023-02-03T13:26:35;18.80;;;12.57;;
76379;SDS011;65201;21.060;105.826;2023-02-03T13:32:02;15.10;;;12.63;;
76379;SDS011;65201;21.060;105.826;2023-02-03T13:42:32;23.10;;;13.23;;
76379;SDS011;65201;21.060;105.826;2023-02-03T13:47:30;21.30;;;12.50;;
76379;SDS011;65201;21.060;105.826;2023-02-03T13:50:01;18.52;;;12.77;;
76379;SDS011;65201;21.060;105.826;2023-02-03T13:52:47;19.88;;;13.77;;
76379;SDS011;65201;21.060;105.826;2023-02-03T13:56:14;18.05;;;13.10;;
76379;SDS011;65201;21.060;105.826;2023-02-03T13:58:19;15.75;;;12.85;;
76379;SDS011;65201;21.060;105.826;2023-02-03T14:05:50;17.45;;;14.18;;
76379;SDS011;65201;21.060;105.826;2023-02-03T14:13:38;19.10;;;14.03;;
76379;SDS011;65201;21.060;105.826;2023-02-03T14:16:22;20.95;;;14.68;;
76379;SDS011;65201;21.060;105.826;2023-02-03T14:18:50;21.65;;;15.63;;
76379;SDS011;65201;21.060;105.826;2023-02-03T14:21:22;24.02;;;15.50;;
76379;SDS011;65201;21.060;105.826;2023-02-03T14:23:56;20.80;;;15.27;;
76379;SDS011;65201;21.060;105.826;2023-02-03T14:26:37;19.07;;;15.00;;
76379;SDS011;65201;21.060;105.826;2023-02-03T14:29:26;22.58;;;15.38;;
76379;SDS011;65201;21.060;105.826;2023-02-03T14:34:31;20.75;;;15.25;;
76379;SDS011;65201;21.060;105.826;2023-02-03T14:37:09;21.33;;;15.00;;
76379;SDS011;65201;21.060;105.826;2023-02-03T14:52:57;23.97;;;16.10;;
76379;SDS011;65201;21.060;105.826;2023-02-03T14:58:19;21.88;;;15.88;;
76379;SDS011;65201;21.060;105.826;2023-02-03T15:00:47;19.83;;;15.63;;
76379;SDS011;65201;21.060;105.826;2023-02-03T15:03:18;19.55;;;15.57;;
76379;SDS011;65201;21.060;105.826;2023-02-03T15:05:48;21.63;;;16.33;;
76379;SDS011;65201;21.060;105.826;2023-02-03T15:08:30;20.40;;;16.13;;
76379;SDS011;65201;21.060;105.826;2023-02-03T15:10:58;22.70;;;16.30;;
76379;SDS011;65201;21.060;105.826;2023-02-03T15:13:25;22.10;;;16.48;;
76379;SDS011;65201;21.060;105.826;2023-02-03T15:15:55;21.92;;;16.30;;
76379;SDS011;65201;21.060;105.826;2023-02-03T15:20:54;20.20;;;16.55;;
76379;SDS011;65201;21.060;105.826;2023-02-03T15:23:22;23.17;;;17.23;;
76379;SDS011;65201;21.060;105.826;2023-02-03T15:25:58;23.55;;;16.98;;
76379;SDS011;65201;21.060;105.826;2023-02-03T15:28:25;23.73;;;16.85;;
76379;SDS011;65201;21.060;105.826;2023-02-03T15:33:35;22.85;;;17.48;;
76379;SDS011;65201;21.060;105.826;2023-02-03T15:36:05;22.73;;;17.38;;
76379;SDS011;65201;21.060;105.826;2023-02-03T15:38:37;21.05;;;16.80;;
76379;SDS011;65201;21.060;105.826;2023-02-03T15:41:06;21.52;;;17.30;;
76379;SDS011;65201;21.060;105.826;2023-02-03T15:43:37;22.47;;;17.37;;
76379;SDS011;65201;21.060;105.826;2023-02-03T15:51:11;22.58;;;17.55;;
76379;SDS011;65201;21.060;105.826;2023-02-03T15:56:16;22.07;;;17.90;;
76379;SDS011;65201;21.060;105.826;2023-02-03T15:58:44;24.17;;;17.35;;
76379;SDS011;65201;21.060;105.826;2023-02-03T16:01:12;23.98;;;17.58;;
76379;SDS011;65201;21.060;105.826;2023-02-03T16:08:40;23.53;;;18.17;;
76379;SDS011;65201;21.060;105.826;2023-02-03T16:11:23;26.08;;;18.23;;
76379;SDS011;65201;21.060;105.826;2023-02-03T16:13:50;22.33;;;17.70;;
76379;SDS011;65201;21.060;105.826;2023-02-03T16:18:55;25.52;;;18.10;;
76379;SDS011;65201;21.060;105.826;2023-02-03T16:21:34;24.00;;;18.40;;
76379;SDS011;65201;21.060;105.826;2023-02-03T16:24:02;23.48;;;17.75;;
76379;SDS011;65201;21.060;105.826;2023-02-03T16:26:29;24.75;;;18.25;;
76379;SDS011;65201;21.060;105.826;2023-02-03T16:31:51;24.48;;;18.67;;
76379;SDS011;65201;21.060;105.826;2023-02-03T16:34:35;26.53;;;18.57;;
76379;SDS011;65201;21.060;105.826;2023-02-03T16:37:27;25.77;;;19.02;;
76379;SDS011;65201;21.060;105.826;2023-02-03T16:40:12;24.38;;;18.60;;
76379;SDS011;65201;21.060;105.826;2023-02-03T16:42:57;23.77;;;18.48;;
76379;SDS011;65201;21.060;105.826;2023-02-03T16:45:42;25.33;;;18.98;;
76379;SDS011;65201;21.060;105.826;2023-02-03T16:48:26;24.47;;;18.40;;
76379;SDS011;65201;21.060;105.826;2023-02-03T16:51:13;24.52;;;18.35;;
76379;SDS011;65201;21.060;105.826;2023-02-03T16:53:40;24.88;;;19.15;;
76379;SDS011;65201;21.060;105.826;2023-02-03T16:56:08;27.20;;;20.05;;